createdAt,value
2023-04-06T10:06:00.000Z,8344
2023-04-06T10:07:18.000Z,52000
2023-04-06T10:10:19.000Z,56448
2023-04-06T10:13:03.000Z,54784
2023-04-06T10:15:48.000Z,53952
2023-04-06T10:18:33.000Z,52320
2023-04-06T10:21:17.000Z,57024
2023-04-06T10:24:02.000Z,40608
2023-04-06T10:26:47.000Z,39072
2023-04-06T10:29:31.000Z,40512
2023-04-06T10:32:16.000Z,44128
2023-04-06T10:33:34.000Z,41568
2023-04-06T10:35:01.000Z,44736
2023-04-06T10:37:45.000Z,56608
2023-04-06T10:40:30.000Z,65312
2023-04-06T10:43:14.000Z,72960
2023-04-06T10:45:59.000Z,68416
2023-04-06T10:48:44.000Z,67424
2023-04-06T10:51:28.000Z,71744
2023-04-06T10:54:13.000Z,70112
2023-04-06T10:56:58.000Z,72128
2023-04-06T10:59:42.000Z,68832
2023-04-06T11:01:00.000Z,64704
2023-04-06T11:02:27.000Z,64416
2023-04-06T11:05:12.000Z,65312
2023-04-06T11:07:56.000Z,64992
2023-04-06T11:10:41.000Z,66688
2023-04-06T11:13:25.000Z,68032
2023-04-06T11:16:10.000Z,68256
2023-04-06T11:18:55.000Z,74464
2023-04-06T11:21:39.000Z,64768
2023-04-06T11:24:24.000Z,65472
2023-04-06T11:27:09.000Z,68352
2023-04-06T11:28:26.000Z,59296
2023-04-06T11:29:53.000Z,57280
2023-04-06T11:32:38.000Z,55904
2023-04-06T11:35:23.000Z,50240
2023-04-06T11:38:07.000Z,54400
2023-04-06T11:40:52.000Z,54848
2023-04-06T11:43:36.000Z,51392
2023-04-06T11:46:21.000Z,49088
2023-04-06T11:49:06.000Z,47968
2023-04-06T11:54:35.000Z,39616
2023-04-06T11:55:53.000Z,38784
2023-04-06T11:57:19.000Z,39136
2023-04-06T11:58:49.000Z,40064
2023-04-06T12:00:20.000Z,41760
2023-04-06T12:01:50.000Z,42496
2023-04-06T12:03:21.000Z,43488
2023-04-06T12:04:51.000Z,44736
2023-04-06T12:06:22.000Z,45120
2023-04-06T12:07:52.000Z,45632
2023-04-06T12:09:23.000Z,46432
2023-04-06T12:10:53.000Z,47936
2023-04-06T12:12:24.000Z,49568
2023-04-06T12:15:25.000Z,54304
2023-04-06T12:16:55.000Z,58016
2023-04-06T12:18:26.000Z,57952
2023-04-06T12:19:57.000Z,58112
2023-04-06T12:21:27.000Z,64928
2023-04-06T12:22:58.000Z,71104
2023-04-06T12:24:15.000Z,74496
2023-04-06T12:25:32.000Z,69856
2023-04-06T12:27:02.000Z,79072
2023-04-06T12:28:33.000Z,77216
2023-04-06T12:30:03.000Z,77152
2023-04-06T12:31:34.000Z,75936
2023-04-06T12:33:04.000Z,73920
2023-04-06T12:34:35.000Z,70176
2023-04-06T12:36:05.000Z,65024
2023-04-06T12:37:36.000Z,66336
2023-04-06T12:39:06.000Z,75424
2023-04-06T12:40:23.000Z,72736
2023-04-06T12:41:40.000Z,64640
2023-04-06T12:43:11.000Z,62144
2023-04-06T12:44:41.000Z,60128
2023-04-06T12:46:12.000Z,53440
2023-04-06T12:47:42.000Z,49920
2023-04-06T12:49:13.000Z,48704
2023-04-06T12:50:43.000Z,48096
2023-04-06T12:52:14.000Z,47808
2023-04-06T12:53:44.000Z,46912
2023-04-06T12:55:15.000Z,46432
2023-04-06T12:56:31.000Z,46016
2023-04-06T12:57:48.000Z,45312
2023-04-06T12:59:19.000Z,44864
2023-04-06T13:00:49.000Z,45664
2023-04-06T13:02:20.000Z,48000
2023-04-06T13:03:50.000Z,50528
2023-04-06T13:05:21.000Z,53248
2023-04-06T13:06:51.000Z,55136
2023-04-06T13:08:22.000Z,54560
2023-04-06T13:09:52.000Z,50464
2023-04-06T13:11:23.000Z,48032
2023-04-06T13:12:40.000Z,45760
2023-04-06T13:13:57.000Z,44576
2023-04-06T13:15:28.000Z,42944
2023-04-06T13:16:58.000Z,41504
2023-04-06T13:18:29.000Z,40192
2023-04-06T13:19:59.000Z,39776
2023-04-06T13:21:30.000Z,39040
2023-04-06T13:23:00.000Z,38368
2023-04-06T13:24:31.000Z,37760
2023-04-06T13:26:01.000Z,37504
2023-04-06T13:27:32.000Z,36800
2023-04-06T13:28:49.000Z,35904
2023-04-06T13:30:06.000Z,34816
2023-04-06T13:31:36.000Z,33568
2023-04-06T13:33:07.000Z,32128
2023-04-06T13:34:37.000Z,30624
2023-04-06T13:36:08.000Z,29216
2023-04-06T13:37:38.000Z,28000
2023-04-06T13:39:09.000Z,26848
2023-04-06T13:40:39.000Z,25792
2023-04-06T13:42:10.000Z,24640
2023-04-06T13:43:40.000Z,23584
2023-04-06T13:44:57.000Z,22688
2023-04-06T13:46:14.000Z,22112
2023-04-06T13:47:45.000Z,21824
2023-04-06T13:49:15.000Z,21856
2023-04-06T13:50:46.000Z,22112
2023-04-06T13:52:16.000Z,22592
2023-04-06T13:53:47.000Z,23488
2023-04-06T13:55:17.000Z,23808
2023-04-06T13:56:48.000Z,23584
2023-04-06T13:58:18.000Z,23264
2023-04-06T13:59:49.000Z,23104
2023-04-06T14:01:06.000Z,23296
2023-04-06T14:02:23.000Z,23776
2023-04-06T14:03:53.000Z,24288
2023-04-06T14:05:24.000Z,24864
2023-04-06T14:06:55.000Z,25376
2023-04-06T14:08:25.000Z,26144
2023-04-06T14:09:56.000Z,27008
2023-04-06T14:11:26.000Z,27744
2023-04-06T14:12:57.000Z,27872
2023-04-06T14:14:27.000Z,27392
2023-04-06T14:15:58.000Z,26560
2023-04-06T14:17:15.000Z,25696
2023-04-06T14:18:32.000Z,25312
2023-04-06T14:20:02.000Z,25184
2023-04-06T14:21:33.000Z,24928
2023-04-06T14:23:03.000Z,24736
2023-04-06T14:24:34.000Z,24576
2023-04-06T14:26:04.000Z,24480
2023-04-06T14:27:35.000Z,24448
2023-04-06T14:29:05.000Z,24128
2023-04-06T14:30:36.000Z,23936
2023-04-06T14:32:06.000Z,24096
2023-04-06T14:33:23.000Z,24448
2023-04-06T14:36:11.000Z,25088
2023-04-06T14:37:41.000Z,24832
2023-04-06T14:39:12.000Z,24096
2023-04-06T14:40:42.000Z,23328
2023-04-06T14:42:13.000Z,22688
2023-04-06T14:43:43.000Z,21696
2023-04-06T14:45:14.000Z,20320
2023-04-06T14:46:44.000Z,18528
2023-04-06T14:48:15.000Z,16832
2023-04-06T14:49:32.000Z,16096
2023-04-06T14:50:48.000Z,16256
2023-04-06T14:52:19.000Z,16928
2023-04-06T14:53:49.000Z,17472
2023-04-06T14:55:20.000Z,17600
2023-04-06T14:56:51.000Z,17536
2023-04-06T14:58:21.000Z,17440
2023-04-06T14:59:52.000Z,17440
2023-04-06T15:01:22.000Z,17568
2023-04-06T15:02:53.000Z,17504
2023-04-06T15:04:23.000Z,17472
2023-04-06T15:05:40.000Z,17440
2023-04-06T15:06:57.000Z,17472
2023-04-06T15:08:28.000Z,17632
2023-04-06T15:09:58.000Z,17728
2023-04-06T15:11:29.000Z,17984
2023-04-06T15:12:59.000Z,18240
2023-04-06T15:14:30.000Z,18368
2023-04-06T15:16:00.000Z,18368
2023-04-06T15:17:31.000Z,18016
2023-04-06T15:19:01.000Z,17792
2023-04-06T15:20:32.000Z,17408
2023-04-06T15:21:49.000Z,16896
2023-04-06T15:23:06.000Z,16288
2023-04-06T15:24:36.000Z,15480
2023-04-06T15:26:07.000Z,14808
2023-04-06T15:27:37.000Z,14280
2023-04-06T15:29:08.000Z,14028
2023-04-06T15:30:38.000Z,13868
2023-04-06T15:32:09.000Z,13684
2023-04-06T15:33:39.000Z,13616
2023-04-06T15:35:10.000Z,13672
2023-04-06T15:36:40.000Z,13760
2023-04-06T15:37:57.000Z,13916
2023-04-06T15:39:14.000Z,14132
2023-04-06T15:40:45.000Z,14228
2023-04-06T15:42:15.000Z,14016
2023-04-06T15:43:46.000Z,13676
2023-04-06T15:45:16.000Z,13304
2023-04-06T15:46:47.000Z,12892
2023-04-06T15:48:18.000Z,12568
2023-04-06T15:49:56.000Z,12328
2023-04-06T15:51:27.000Z,12060
2023-04-06T15:52:57.000Z,11852
2023-04-06T15:54:14.000Z,11580
2023-04-06T15:55:31.000Z,11312
2023-04-06T15:57:02.000Z,11032
2023-04-06T15:58:32.000Z,10604
2023-04-06T16:00:03.000Z,10220
2023-04-06T16:01:33.000Z,9872
2023-04-06T16:03:04.000Z,9532
2023-04-06T16:04:34.000Z,8872
2023-04-06T16:06:05.000Z,8212
2023-04-06T16:07:35.000Z,7444
2023-04-06T16:09:06.000Z,6804
2023-04-06T16:10:23.000Z,6268
2023-04-06T16:11:40.000Z,5964
2023-04-06T16:13:10.000Z,5832
2023-04-06T16:14:41.000Z,5868
2023-04-06T16:16:11.000Z,5932
2023-04-06T16:17:42.000Z,5872
2023-04-06T16:19:12.000Z,5704
2023-04-06T16:20:43.000Z,5536
2023-04-06T16:22:13.000Z,5364
2023-04-06T16:23:44.000Z,5232
2023-04-06T16:25:14.000Z,5128
2023-04-06T16:26:31.000Z,5032
2023-04-06T16:27:48.000Z,4956
2023-04-06T16:29:19.000Z,4840
2023-04-06T16:30:49.000Z,4708
2023-04-06T16:32:20.000Z,4640
2023-04-06T16:33:50.000Z,4544
2023-04-06T16:35:21.000Z,4368
2023-04-06T16:36:51.000Z,4176
2023-04-06T16:38:22.000Z,3844
2023-04-06T16:39:52.000Z,3692
2023-04-06T16:41:23.000Z,3556
2023-04-06T16:42:40.000Z,3424
2023-04-06T16:43:57.000Z,3288
2023-04-06T16:45:27.000Z,3136
2023-04-06T16:46:58.000Z,3040
2023-04-06T16:48:28.000Z,2984
2023-04-06T16:49:59.000Z,2952
2023-04-06T16:51:29.000Z,3012
2023-04-06T16:53:00.000Z,3092
2023-04-06T16:54:30.000Z,3184
2023-04-06T16:56:01.000Z,3188
2023-04-06T16:57:31.000Z,3152
2023-04-06T16:58:48.000Z,3040
2023-04-06T17:00:05.000Z,2952
2023-04-06T17:01:36.000Z,2916
2023-04-06T17:03:06.000Z,2876
2023-04-06T17:04:37.000Z,2772
2023-04-06T17:06:07.000Z,2616
2023-04-06T17:07:38.000Z,2424
2023-04-06T17:09:08.000Z,2176
2023-04-06T17:10:39.000Z,1936
2023-04-06T17:12:09.000Z,1808
2023-04-06T17:13:40.000Z,1784
2023-04-06T17:14:57.000Z,1732
2023-04-06T17:16:14.000Z,1636
2023-04-06T17:17:45.000Z,1500
2023-04-06T17:19:15.000Z,1456
2023-04-06T17:20:46.000Z,1404
2023-04-06T17:22:16.000Z,1308
2023-04-06T17:23:47.000Z,1256
2023-04-06T17:25:17.000Z,1248
2023-04-06T17:26:48.000Z,1212
2023-04-06T17:28:18.000Z,1168
2023-04-06T17:29:49.000Z,1136
2023-04-06T17:31:06.000Z,1080
2023-04-06T17:32:23.000Z,1008
2023-04-06T17:33:53.000Z,904
2023-04-06T17:35:24.000Z,792
2023-04-06T17:36:54.000Z,728
2023-04-06T17:38:25.000Z,676
2023-04-06T17:39:55.000Z,632
2023-04-06T17:41:26.000Z,624
2023-04-06T17:42:56.000Z,620
2023-04-06T17:44:27.000Z,596
2023-04-06T17:45:57.000Z,568
2023-04-06T17:47:14.000Z,532
2023-04-06T17:48:31.000Z,520
2023-04-06T17:50:02.000Z,492
2023-04-06T17:51:32.000Z,440
2023-04-06T17:53:03.000Z,376
2023-04-06T17:54:33.000Z,312
2023-04-06T17:56:04.000Z,244
2023-04-06T17:57:34.000Z,196
2023-04-06T17:59:05.000Z,192
2023-04-06T18:00:35.000Z,212
2023-04-06T18:02:06.000Z,212
2023-04-06T18:03:23.000Z,196
2023-04-06T18:04:40.000Z,188
2023-04-06T18:06:10.000Z,160
2023-04-06T18:07:41.000Z,140
2023-04-06T18:09:11.000Z,112
2023-04-06T18:10:42.000Z,92
2023-04-06T18:12:12.000Z,76
2023-04-06T18:13:43.000Z,60
2023-04-06T18:15:14.000Z,44
2023-04-06T18:16:44.000Z,44
2023-04-06T18:18:15.000Z,40
2023-04-06T18:19:32.000Z,32
2023-04-06T18:20:48.000Z,28
2023-04-06T18:22:19.000Z,20
2023-04-06T18:23:49.000Z,16
2023-04-06T18:25:20.000Z,12
2023-04-06T18:26:50.000Z,8
2023-04-06T18:28:21.000Z,8
2023-04-06T18:29:51.000Z,4
2023-04-06T18:31:22.000Z,4
2023-04-06T18:32:52.000Z,4
2023-04-06T18:34:23.000Z,0
2023-04-06T18:35:40.000Z,4
2023-04-06T18:36:57.000Z,4
2023-04-06T18:38:27.000Z,0
2023-04-06T18:39:58.000Z,0
2023-04-06T18:41:28.000Z,0
2023-04-06T18:42:59.000Z,0
2023-04-06T18:44:29.000Z,0
2023-04-06T18:46:00.000Z,0
2023-04-06T18:47:30.000Z,0
2023-04-06T18:49:01.000Z,0
2023-04-06T18:50:31.000Z,0
2023-04-06T18:51:48.000Z,0
2023-04-06T18:53:05.000Z,0
2023-04-06T18:54:36.000Z,0
2023-04-06T18:56:06.000Z,0
2023-04-06T18:57:37.000Z,0
2023-04-06T18:59:07.000Z,0
2023-04-06T19:00:38.000Z,0
2023-04-06T19:02:09.000Z,0
2023-04-06T19:03:39.000Z,0
2023-04-06T19:05:10.000Z,0
2023-04-06T19:06:40.000Z,0
2023-04-06T19:07:57.000Z,0
2023-04-06T19:09:14.000Z,0
2023-04-06T19:10:45.000Z,0
2023-04-06T19:12:15.000Z,0
2023-04-06T19:13:46.000Z,0
2023-04-06T19:15:16.000Z,0
2023-04-06T19:16:47.000Z,0
2023-04-06T19:18:17.000Z,0
2023-04-06T19:19:48.000Z,0
2023-04-06T19:21:18.000Z,0
2023-04-06T19:22:49.000Z,0
2023-04-06T19:24:06.000Z,0
2023-04-06T19:25:23.000Z,0
2023-04-06T19:26:53.000Z,0
2023-04-06T19:28:24.000Z,0
2023-04-06T19:29:54.000Z,0
2023-04-06T19:31:25.000Z,0
2023-04-06T19:32:55.000Z,0
2023-04-06T19:34:26.000Z,0
2023-04-06T19:35:56.000Z,0
2023-04-06T19:37:27.000Z,0
2023-04-06T19:38:57.000Z,0
2023-04-06T19:40:14.000Z,0
2023-04-06T19:41:31.000Z,0
2023-04-06T19:43:02.000Z,0
2023-04-06T19:44:32.000Z,0
2023-04-06T19:46:03.000Z,0
2023-04-06T19:47:33.000Z,0
2023-04-06T19:49:04.000Z,0
2023-04-06T19:50:34.000Z,0
2023-04-06T19:52:05.000Z,0
2023-04-06T19:53:35.000Z,0
2023-04-06T19:55:06.000Z,0
2023-04-06T19:56:23.000Z,0
2023-04-06T19:57:40.000Z,0
2023-04-06T19:59:11.000Z,0
2023-04-06T20:00:41.000Z,0
2023-04-06T20:02:12.000Z,0
2023-04-06T20:03:42.000Z,0
2023-04-06T20:05:13.000Z,0
2023-04-06T20:06:43.000Z,0
2023-04-06T20:08:14.000Z,0
2023-04-06T20:09:44.000Z,0
2023-04-06T20:11:15.000Z,0
2023-04-06T20:12:32.000Z,0
2023-04-06T20:13:49.000Z,0
2023-04-06T20:15:19.000Z,0
2023-04-06T20:16:50.000Z,0
2023-04-06T20:18:20.000Z,0
2023-04-06T20:19:51.000Z,0
2023-04-06T20:21:21.000Z,0
2023-04-06T20:22:52.000Z,0
2023-04-06T20:24:22.000Z,0
2023-04-06T20:25:53.000Z,0
2023-04-06T20:27:23.000Z,0
2023-04-06T20:28:40.000Z,0
2023-04-06T20:29:57.000Z,0
2023-04-06T20:31:28.000Z,0
2023-04-06T20:32:58.000Z,0
2023-04-06T20:34:29.000Z,0
2023-04-06T20:35:59.000Z,0
2023-04-06T20:37:30.000Z,0
2023-04-06T20:39:00.000Z,0
2023-04-06T20:40:31.000Z,0
2023-04-06T20:42:01.000Z,0
2023-04-06T20:43:32.000Z,0
2023-04-06T20:44:49.000Z,0
2023-04-06T20:46:06.000Z,0
2023-04-06T20:47:37.000Z,0
2023-04-06T20:49:07.000Z,0
2023-04-06T20:50:38.000Z,0
2023-04-06T20:52:08.000Z,0
2023-04-06T20:53:39.000Z,0
2023-04-06T20:55:09.000Z,0
2023-04-06T20:56:40.000Z,0
2023-04-06T20:58:10.000Z,0
2023-04-06T20:59:41.000Z,0
2023-04-06T21:00:58.000Z,0
2023-04-06T21:02:14.000Z,0
2023-04-06T21:03:45.000Z,0
2023-04-06T21:05:15.000Z,0
2023-04-06T21:06:46.000Z,0
2023-04-06T21:08:16.000Z,0
2023-04-06T21:09:47.000Z,0
2023-04-06T21:11:17.000Z,0
2023-04-06T21:12:48.000Z,0
2023-04-06T21:14:18.000Z,0
2023-04-06T21:15:49.000Z,0
2023-04-06T21:17:06.000Z,0
2023-04-06T21:18:23.000Z,0
2023-04-06T21:19:53.000Z,0
2023-04-06T21:21:24.000Z,0
2023-04-06T21:22:54.000Z,0
2023-04-06T21:24:25.000Z,0
2023-04-06T21:25:55.000Z,0
2023-04-06T21:27:26.000Z,0
2023-04-06T21:28:56.000Z,0
2023-04-06T21:30:27.000Z,0
2023-04-06T21:31:57.000Z,0
2023-04-06T21:33:15.000Z,0
2023-04-06T21:34:32.000Z,0
2023-04-06T21:36:02.000Z,0
2023-04-06T21:37:33.000Z,0
2023-04-06T21:39:03.000Z,0
2023-04-06T21:40:34.000Z,0
2023-04-06T21:42:04.000Z,0
2023-04-06T21:43:35.000Z,0
2023-04-06T21:45:05.000Z,0
2023-04-06T21:46:36.000Z,0
2023-04-06T21:48:06.000Z,0
2023-04-06T21:49:23.000Z,0
2023-04-06T21:50:40.000Z,0
2023-04-06T21:52:11.000Z,0
2023-04-06T21:53:41.000Z,0
2023-04-06T21:55:12.000Z,0
2023-04-06T21:56:42.000Z,0
2023-04-06T21:58:13.000Z,0
2023-04-06T21:59:43.000Z,0
2023-04-06T22:01:14.000Z,0
2023-04-06T22:02:44.000Z,0
2023-04-06T22:04:15.000Z,0
2023-04-06T22:05:32.000Z,0
2023-04-06T22:06:49.000Z,0
2023-04-06T22:08:19.000Z,0
2023-04-06T22:09:50.000Z,0
2023-04-06T22:11:20.000Z,0
2023-04-06T22:12:51.000Z,0
2023-04-06T22:14:21.000Z,0
2023-04-06T22:15:52.000Z,0
2023-04-06T22:17:22.000Z,0
2023-04-06T22:18:53.000Z,0
2023-04-06T22:20:23.000Z,0
2023-04-06T22:21:40.000Z,0
2023-04-06T22:22:57.000Z,0
2023-04-06T22:24:28.000Z,0
2023-04-06T22:25:58.000Z,0
2023-04-06T22:27:29.000Z,0
2023-04-06T22:29:00.000Z,0
2023-04-06T22:30:30.000Z,0
2023-04-06T22:32:01.000Z,0
2023-04-06T22:33:31.000Z,0
2023-04-06T22:35:02.000Z,0
2023-04-06T22:36:32.000Z,0
2023-04-06T22:37:49.000Z,0
2023-04-06T22:39:06.000Z,0
2023-04-06T22:40:36.000Z,0
2023-04-06T22:42:07.000Z,0
2023-04-06T22:43:37.000Z,0
2023-04-06T22:45:08.000Z,0
2023-04-06T22:46:38.000Z,0
2023-04-06T22:48:09.000Z,0
2023-04-06T22:49:39.000Z,0
2023-04-06T22:51:10.000Z,0
2023-04-06T22:52:40.000Z,0
2023-04-06T22:53:57.000Z,0
2023-04-06T22:55:14.000Z,0
2023-04-06T22:56:45.000Z,0
2023-04-06T22:58:15.000Z,0
2023-04-06T22:59:46.000Z,0
2023-04-06T23:01:16.000Z,0
2023-04-06T23:02:47.000Z,0
2023-04-06T23:04:17.000Z,0
2023-04-06T23:05:48.000Z,0
2023-04-06T23:07:18.000Z,0
2023-04-06T23:08:49.000Z,0
2023-04-06T23:10:06.000Z,0
2023-04-06T23:11:23.000Z,0
2023-04-06T23:12:53.000Z,0
2023-04-06T23:14:24.000Z,0
2023-04-06T23:15:54.000Z,0
2023-04-06T23:17:25.000Z,0
2023-04-06T23:18:56.000Z,0
2023-04-06T23:20:26.000Z,0
2023-04-06T23:21:57.000Z,0
2023-04-06T23:23:27.000Z,0
2023-04-06T23:24:58.000Z,0
2023-04-06T23:26:15.000Z,0
2023-04-06T23:27:32.000Z,0
2023-04-06T23:29:02.000Z,0
2023-04-06T23:30:33.000Z,0
2023-04-06T23:32:03.000Z,0
2023-04-06T23:33:34.000Z,0
2023-04-06T23:35:04.000Z,0
2023-04-06T23:36:35.000Z,0
2023-04-06T23:38:05.000Z,0
2023-04-06T23:39:36.000Z,0
2023-04-06T23:41:06.000Z,0
2023-04-06T23:42:23.000Z,0
2023-04-06T23:43:40.000Z,0
2023-04-06T23:45:11.000Z,0
2023-04-06T23:46:41.000Z,0
2023-04-06T23:48:12.000Z,0
2023-04-06T23:49:42.000Z,0
2023-04-06T23:51:13.000Z,0
2023-04-06T23:52:43.000Z,0
2023-04-06T23:54:14.000Z,0
2023-04-06T23:55:44.000Z,0
2023-04-06T23:57:15.000Z,0
2023-04-06T23:58:32.000Z,0
2023-04-06T23:59:49.000Z,0
